Weather observations for the past three days for
Modesto City-County Airport - Harry Sham Field
Imperial (Metric)
Date Time (pdt) Wind (mph) Vis. (mi.) Weather Sky Cond. Temperature (ºF) Relative Humidity Wind Chill (°F) Heat Index (°F) Pressure Precipitation (in)
Air Dwpt 6 hour altimeter (in) sea level (mb) 1 hr 3 hr 6 hr
Max. Min.
09 03:53 Calm 10.00 Fair CLR 57.9 51.1 78% 29.93 1013.3
09 02:53 Calm 10.00 Fair CLR 59 51.1 75% 29.93 1013.5
09 01:53 N 9 10.00 Fair CLR 62.1 51.1 67% 29.94 1013.6
09 00:53 N 6 10.00 Fair CLR 63 50 63% 29.94 1013.6
08 23:53 N 7 10.00 Fair CLR 64 51.1 63% 29.94 1013.7
08 22:53 N 7 10.00 Fair CLR 66.9 48.9 84.9 66 53% 29.94 1013.7
08 21:53 NW 7 10.00 Fair CLR 69.1 46.9 45% 29.93 1013.6
08 20:53 NW 8 10.00 Fair CLR 71.1 48.9 46% 29.92 1013.2
08 19:53 NW 12 10.00 Fair CLR 75 51.1 43% 78 29.91 1012.7
08 18:53 N 13 10.00 Fair CLR 81 50 34% 80 29.9 1012.6
08 17:53 NW 12 10.00 Fair CLR 82.9 52 34% 82 29.91 1012.7
08 16:53 N 12 G 20 10.00 Fair CLR 84.9 53.1 84.9 70 33% 83 29.92 1013.0
08 15:53 NW 18 10.00 Fair CLR 84.9 52 32% 83 29.94 1013.8
08 14:53 NW 13 10.00 Fair CLR 82 54 38% 81 29.97 1014.6
08 13:53 NW 15 G 20 10.00 Fair CLR 80.1 53.1 39% 80 29.99 1015.4
08 12:53 NW 12 10.00 Fair CLR 77 50 39% 78 30 1015.9
08 11:53 NW 10 G 16 10.00 Fair CLR 75 50 42% 78 30.02 1016.5
08 10:53 N 10 10.00 Fair CLR 71.1 48.9 71.1 54 46% 30.03 1016.9
08 09:53 NW 10 10.00 Fair CLR 66 48.9 54% 30.04 1017.2
08 08:53 N 10 10.00 Fair CLR 64 48 56% 30.04 1017.2
08 07:53 N 8 10.00 Fair CLR 57.9 48.9 72% 30.04 1017.0
08 06:53 N 8 10.00 Fair CLR 55 48.9 80% 30.02 1016.5
08 05:53 N 7 10.00 Fair CLR 55 50 83% 30.01 1016.1
08 04:53 N 6 10.00 Fair CLR 55 51.1 66.9 55 87% 30 1015.9
08 03:53 N 6 10.00 Fair CLR 55.9 52 87% 30 1015.7
08 02:53 N 7 10.00 Fair CLR 57 52 83% 29.99 1015.5
08 01:53 N 10 10.00 Fair CLR 59 50 72% 29.99 1015.4
08 00:53 N 12 10.00 Fair CLR 61 51.1 70% 29.99 1015.2
07 23:53 N 9 10.00 Fair CLR 63 51.1 65% 29.98 1015.0
07 22:53 NW 10 10.00 Fair CLR 66.9 52 84.9 66.9 59% 29.98 1014.9
07 21:53 N 8 10.00 Fair CLR 69.1 54 59% 29.97 1014.9
07 20:53 NW 12 10.00 Fair CLR 73 55.9 55% 29.96 1014.2
07 19:53 NW 13 10.00 Fair CLR 78.1 55 45% 79 29.94 1013.6
07 17:53 N 15 10.00 Fair CLR 82.9 55 38% 82 29.94 1013.6
07 16:53 NW 12 G 22 10.00 Fair CLR 84 57.9 84.9 73 41% 83 29.94 1013.8
07 15:53 N 10 10.00 Fair CLR 82.9 57.9 43% 83 29.96 1014.3
07 14:53 N 14 G 21 10.00 Fair CLR 84 57.9 41% 83 29.98 1015.1
07 13:53 N 9 10.00 Fair CLR 81 57 44% 81 30 1015.8
07 12:53 W 8 10.00 Fair CLR 78.1 55.9 47% 79 30.02 1016.5
07 11:53 NW 5 10.00 Fair CLR 77 55.9 48% 79 30.04 1017.2
07 10:53 NW 6 10.00 Fair CLR 73 55 73 55 53% 30.05 1017.6
07 09:53 Calm 10.00 Fair CLR 69.1 55 61% 30.06 1017.9
07 08:53 Vrbl 6 10.00 Fair CLR 64.9 54 68% 30.07 1018.3
07 07:53 NW 7 10.00 Fair CLR 61 54 78% 30.07 1018.4
07 06:53 NW 6 10.00 Fair CLR 57.9 53.1 84% 30.06 1017.9
07 05:53 NW 5 10.00 Fair CLR 55.9 53.1 90% 30.05 1017.5
07 04:53 NW 7 10.00 Fair CLR 59 53.1 66 57.9 81% 30.05 1017.5
07 03:53 NW 5 10.00 Fair CLR 59 54 83% 30.05 1017.4
07 02:53 NW 3 10.00 Fair CLR 60.1 54 80% 30.05 1017.4
07 01:53 N 3 10.00 Fair CLR 61 55 81% 30.05 1017.6
07 00:53 N 7 10.00 Fair CLR 62.1 54 75% 30.06 1017.8
06 23:53 N 7 10.00 Fair CLR 64 55.9 75% 30.05 1017.6
06 22:53 N 7 10.00 Fair CLR 66 55.9 77 66 70% 30.05 1017.5
06 21:53 N 7 10.00 Fair CLR 68 55 63% 30.05 1017.5
06 20:53 NW 6 10.00 Fair CLR 71.1 55 57% 30.04 1017.1
06 19:53 N 5 10.00 Fair CLR 73 54 51% 30.02 1016.5
06 18:53 N 8 10.00 Fair CLR 75 54 48% 78 30.01 1016.2
06 17:53 NW 7 10.00 Fair CLR 77 53.1 43% 78 30.01 1016.2
06 16:53 N 6 10.00 Fair CLR 75.9 53.1 77 68 45% 78 30.02 1016.4
06 15:53 N 5 G 18 10.00 Fair CLR 75.9 53.1 45% 78 30.03 1016.9
06 14:53 NW 7 10.00 Fair CLR 75 51.1 43% 78 30.06 1017.8
06 13:53 SW 6 10.00 Fair CLR 72 50 46% 30.08 1018.4
06 12:53 Vrbl 5 10.00 A Few Clouds FEW040 72 52 50% 30.1 1019.1
06 11:53 NW 8 10.00 Fair CLR 69.1 51.1 53% 30.11 1019.7
06 10:53 NW 8 10.00 Fair CLR 69.1 52 69.1 53.1 55% 30.12 1020.0
06 09:53 Vrbl 6 10.00 Fair CLR 64 51.1 63% 30.12 1019.9
06 08:53 NW 7 10.00 Fair CLR 62.1 51.1 67% 30.12 1020.0
06 07:53 NW 7 10.00 Fair CLR 59 52 78% 30.13 1020.2
06 06:53 NW 7 10.00 Partly Cloudy SCT050 57 51.1 81% 30.12 1019.8
06 05:53 NW 5 10.00 Overcast OVC055 54 51.1 90% 30.1 1019.2
06 04:53 N 3 10.00 Fair CLR 54 50 57.9 52 87% 30.09 1019.1
Date Time (pdt) Wind (mph) Vis. (mi.) Weather Sky Cond. Air Dwpt Max. Min. Relative Humidity Wind Chill (°F) Heat Index (°F) altimeter (in) sea level (mb) 1 hr 3 hr 6 hr
6 hour
Temperature (ºF) Pressure Precipitation (in)